TAF KXWA
KXWA 072326Z 0800/0824 VRB06KT P6SM BKN100 FM081300 15008KT P6SM OVC060 FM081800 18013G21KT P6SM SCT100 FM082100 21011KT P6SM SCT200=
METAR KXWA
WC KXWA
WS KXWA
WV KXWA